sensor_id;sensor_type;location;lat;lon;timestamp;P1;durP1;ratioP1;P2;durP2;ratioP2
13234;SDS011;6683;48.506;9.050;2023-09-19T00:02:26;0.60;;;0.60;;
13234;SDS011;6683;48.506;9.050;2023-09-19T00:05:29;0.70;;;0.50;;
13234;SDS011;6683;48.506;9.050;2023-09-19T00:08:35;1.40;;;0.50;;
13234;SDS011;6683;48.506;9.050;2023-09-19T00:11:39;0.97;;;0.63;;
13234;SDS011;6683;48.506;9.050;2023-09-19T00:14:42;0.90;;;0.80;;
13234;SDS011;6683;48.506;9.050;2023-09-19T00:17:44;0.40;;;0.40;;
13234;SDS011;6683;48.506;9.050;2023-09-19T00:20:47;0.80;;;0.50;;
13234;SDS011;6683;48.506;9.050;2023-09-19T00:23:51;1.27;;;0.50;;
13234;SDS011;6683;48.506;9.050;2023-09-19T00:26:55;0.60;;;0.50;;
13234;SDS011;6683;48.506;9.050;2023-09-19T00:29:58;2.07;;;0.63;;
13234;SDS011;6683;48.506;9.050;2023-09-19T00:33:01;1.03;;;0.50;;
13234;SDS011;6683;48.506;9.050;2023-09-19T00:36:07;1.23;;;0.40;;
13234;SDS011;6683;48.506;9.050;2023-09-19T00:39:09;0.83;;;0.50;;
13234;SDS011;6683;48.506;9.050;2023-09-19T00:42:18;0.90;;;0.43;;
13234;SDS011;6683;48.506;9.050;2023-09-19T00:45:21;0.73;;;0.50;;
13234;SDS011;6683;48.506;9.050;2023-09-19T00:48:24;0.40;;;0.40;;
13234;SDS011;6683;48.506;9.050;2023-09-19T00:51:28;0.40;;;0.33;;
13234;SDS011;6683;48.506;9.050;2023-09-19T00:54:32;1.07;;;0.60;;
13234;SDS011;6683;48.506;9.050;2023-09-19T00:57:37;1.07;;;0.63;;
13234;SDS011;6683;48.506;9.050;2023-09-19T01:00:40;0.63;;;0.43;;
13234;SDS011;6683;48.506;9.050;2023-09-19T01:03:44;0.40;;;0.40;;
13234;SDS011;6683;48.506;9.050;2023-09-19T01:06:46;1.33;;;0.40;;
13234;SDS011;6683;48.506;9.050;2023-09-19T01:09:53;0.50;;;0.50;;
13234;SDS011;6683;48.506;9.050;2023-09-19T01:12:58;1.80;;;0.57;;
13234;SDS011;6683;48.506;9.050;2023-09-19T01:16:11;0.60;;;0.53;;
13234;SDS011;6683;48.506;9.050;2023-09-19T01:19:48;0.77;;;0.60;;
13234;SDS011;6683;48.506;9.050;2023-09-19T01:23:28;0.70;;;0.50;;
13234;SDS011;6683;48.506;9.050;2023-09-19T01:27:05;1.30;;;0.50;;
13234;SDS011;6683;48.506;9.050;2023-09-19T01:30:27;0.83;;;0.60;;
13234;SDS011;6683;48.506;9.050;2023-09-19T01:37:01;0.67;;;0.40;;
13234;SDS011;6683;48.506;9.050;2023-09-19T01:40:04;0.50;;;0.40;;
13234;SDS011;6683;48.506;9.050;2023-09-19T01:43:17;1.37;;;0.50;;
13234;SDS011;6683;48.506;9.050;2023-09-19T01:46:30;0.40;;;0.40;;
13234;SDS011;6683;48.506;9.050;2023-09-19T01:49:37;1.23;;;0.40;;
13234;SDS011;6683;48.506;9.050;2023-09-19T01:52:52;1.70;;;0.57;;
13234;SDS011;6683;48.506;9.050;2023-09-19T01:56:00;1.07;;;0.57;;
13234;SDS011;6683;48.506;9.050;2023-09-19T01:59:07;0.90;;;0.60;;
13234;SDS011;6683;48.506;9.050;2023-09-19T02:02:16;0.93;;;0.50;;
13234;SDS011;6683;48.506;9.050;2023-09-19T02:05:24;1.53;;;0.60;;
13234;SDS011;6683;48.506;9.050;2023-09-19T02:08:27;1.23;;;0.50;;
13234;SDS011;6683;48.506;9.050;2023-09-19T02:11:31;1.23;;;0.53;;
13234;SDS011;6683;48.506;9.050;2023-09-19T02:14:33;0.90;;;0.50;;
13234;SDS011;6683;48.506;9.050;2023-09-19T02:17:37;1.00;;;0.50;;
13234;SDS011;6683;48.506;9.050;2023-09-19T02:20:39;0.80;;;0.60;;
13234;SDS011;6683;48.506;9.050;2023-09-19T02:23:41;0.70;;;0.60;;
13234;SDS011;6683;48.506;9.050;2023-09-19T02:26:44;0.80;;;0.50;;
13234;SDS011;6683;48.506;9.050;2023-09-19T02:29:46;0.93;;;0.60;;
13234;SDS011;6683;48.506;9.050;2023-09-19T02:32:51;0.83;;;0.50;;
13234;SDS011;6683;48.506;9.050;2023-09-19T02:35:54;0.60;;;0.60;;
13234;SDS011;6683;48.506;9.050;2023-09-19T02:38:58;0.90;;;0.50;;
13234;SDS011;6683;48.506;9.050;2023-09-19T02:42:00;0.57;;;0.40;;
13234;SDS011;6683;48.506;9.050;2023-09-19T02:45:04;0.73;;;0.60;;
13234;SDS011;6683;48.506;9.050;2023-09-19T02:48:09;0.80;;;0.63;;
13234;SDS011;6683;48.506;9.050;2023-09-19T02:51:11;0.90;;;0.80;;
13234;SDS011;6683;48.506;9.050;2023-09-19T02:54:14;1.27;;;0.60;;
13234;SDS011;6683;48.506;9.050;2023-09-19T02:57:17;2.33;;;0.80;;
13234;SDS011;6683;48.506;9.050;2023-09-19T03:00:20;0.80;;;0.70;;
13234;SDS011;6683;48.506;9.050;2023-09-19T03:03:25;1.53;;;0.90;;
13234;SDS011;6683;48.506;9.050;2023-09-19T03:06:28;1.57;;;0.80;;
13234;SDS011;6683;48.506;9.050;2023-09-19T03:09:31;1.33;;;0.60;;
13234;SDS011;6683;48.506;9.050;2023-09-19T03:12:33;2.00;;;0.73;;
13234;SDS011;6683;48.506;9.050;2023-09-19T03:15:36;0.83;;;0.70;;
13234;SDS011;6683;48.506;9.050;2023-09-19T03:18:45;0.73;;;0.63;;
13234;SDS011;6683;48.506;9.050;2023-09-19T03:21:47;0.67;;;0.60;;
13234;SDS011;6683;48.506;9.050;2023-09-19T03:24:50;5.77;;;1.23;;
13234;SDS011;6683;48.506;9.050;2023-09-19T03:27:53;2.23;;;0.70;;
13234;SDS011;6683;48.506;9.050;2023-09-19T03:30:58;2.80;;;0.80;;
13234;SDS011;6683;48.506;9.050;2023-09-19T03:34:03;1.83;;;1.00;;
13234;SDS011;6683;48.506;9.050;2023-09-19T03:37:05;2.87;;;0.80;;
13234;SDS011;6683;48.506;9.050;2023-09-19T03:40:08;0.80;;;0.60;;
13234;SDS011;6683;48.506;9.050;2023-09-19T03:43:11;1.43;;;0.80;;
13234;SDS011;6683;48.506;9.050;2023-09-19T03:46:14;1.20;;;0.70;;
13234;SDS011;6683;48.506;9.050;2023-09-19T03:49:17;0.90;;;0.70;;
13234;SDS011;6683;48.506;9.050;2023-09-19T03:52:19;0.90;;;0.57;;
13234;SDS011;6683;48.506;9.050;2023-09-19T03:55:21;1.20;;;0.70;;
13234;SDS011;6683;48.506;9.050;2023-09-19T03:58:23;0.67;;;0.63;;
13234;SDS011;6683;48.506;9.050;2023-09-19T04:01:25;1.07;;;0.90;;
13234;SDS011;6683;48.506;9.050;2023-09-19T04:04:32;1.23;;;0.80;;
13234;SDS011;6683;48.506;9.050;2023-09-19T04:07:34;1.00;;;0.80;;
13234;SDS011;6683;48.506;9.050;2023-09-19T04:10:36;1.33;;;0.97;;
13234;SDS011;6683;48.506;9.050;2023-09-19T04:13:38;0.90;;;0.80;;
13234;SDS011;6683;48.506;9.050;2023-09-19T04:16:40;0.67;;;0.67;;
13234;SDS011;6683;48.506;9.050;2023-09-19T04:19:44;1.53;;;0.80;;
13234;SDS011;6683;48.506;9.050;2023-09-19T04:22:46;2.30;;;0.97;;
13234;SDS011;6683;48.506;9.050;2023-09-19T04:25:48;2.17;;;0.83;;
13234;SDS011;6683;48.506;9.050;2023-09-19T04:28:50;1.03;;;0.80;;
13234;SDS011;6683;48.506;9.050;2023-09-19T04:31:52;1.67;;;0.60;;
13234;SDS011;6683;48.506;9.050;2023-09-19T04:34:55;4.40;;;0.93;;
13234;SDS011;6683;48.506;9.050;2023-09-19T04:38:00;2.20;;;1.07;;
13234;SDS011;6683;48.506;9.050;2023-09-19T04:41:03;0.93;;;0.83;;
13234;SDS011;6683;48.506;9.050;2023-09-19T04:44:05;0.80;;;0.80;;
13234;SDS011;6683;48.506;9.050;2023-09-19T04:47:07;1.30;;;1.00;;
13234;SDS011;6683;48.506;9.050;2023-09-19T04:50:13;1.80;;;0.97;;
13234;SDS011;6683;48.506;9.050;2023-09-19T04:53:16;1.00;;;0.80;;
13234;SDS011;6683;48.506;9.050;2023-09-19T04:56:20;1.03;;;0.80;;
13234;SDS011;6683;48.506;9.050;2023-09-19T04:59:23;0.60;;;0.60;;
13234;SDS011;6683;48.506;9.050;2023-09-19T05:02:26;1.00;;;0.80;;
13234;SDS011;6683;48.506;9.050;2023-09-19T05:05:33;1.00;;;0.67;;
13234;SDS011;6683;48.506;9.050;2023-09-19T05:08:35;2.00;;;0.73;;
13234;SDS011;6683;48.506;9.050;2023-09-19T05:11:37;0.73;;;0.60;;
13234;SDS011;6683;48.506;9.050;2023-09-19T05:14:39;0.67;;;0.60;;
13234;SDS011;6683;48.506;9.050;2023-09-19T05:17:41;2.23;;;0.60;;
13234;SDS011;6683;48.506;9.050;2023-09-19T05:20:44;0.70;;;0.70;;
13234;SDS011;6683;48.506;9.050;2023-09-19T05:23:47;1.00;;;0.60;;
13234;SDS011;6683;48.506;9.050;2023-09-19T05:26:49;2.07;;;0.90;;
13234;SDS011;6683;48.506;9.050;2023-09-19T05:29:51;2.60;;;0.80;;
13234;SDS011;6683;48.506;9.050;2023-09-19T05:32:55;1.43;;;0.80;;
13234;SDS011;6683;48.506;9.050;2023-09-19T05:35:59;3.67;;;0.90;;
13234;SDS011;6683;48.506;9.050;2023-09-19T05:39:01;0.73;;;0.73;;
13234;SDS011;6683;48.506;9.050;2023-09-19T05:42:04;0.97;;;0.87;;
13234;SDS011;6683;48.506;9.050;2023-09-19T05:45:08;1.07;;;0.80;;
13234;SDS011;6683;48.506;9.050;2023-09-19T05:48:12;0.80;;;0.60;;
13234;SDS011;6683;48.506;9.050;2023-09-19T05:51:17;1.37;;;0.90;;
13234;SDS011;6683;48.506;9.050;2023-09-19T05:54:22;2.23;;;0.87;;
13234;SDS011;6683;48.506;9.050;2023-09-19T05:57:24;1.70;;;0.80;;
13234;SDS011;6683;48.506;9.050;2023-09-19T06:00:30;1.43;;;0.90;;
13234;SDS011;6683;48.506;9.050;2023-09-19T06:03:32;1.63;;;0.70;;
13234;SDS011;6683;48.506;9.050;2023-09-19T06:06:36;1.07;;;0.73;;
13234;SDS011;6683;48.506;9.050;2023-09-19T06:09:40;1.13;;;0.70;;
13234;SDS011;6683;48.506;9.050;2023-09-19T06:12:42;1.23;;;0.80;;
13234;SDS011;6683;48.506;9.050;2023-09-19T06:15:44;0.80;;;0.60;;
13234;SDS011;6683;48.506;9.050;2023-09-19T06:18:47;1.13;;;0.83;;
13234;SDS011;6683;48.506;9.050;2023-09-19T06:21:54;0.50;;;0.50;;
13234;SDS011;6683;48.506;9.050;2023-09-19T06:24:56;0.90;;;0.63;;
13234;SDS011;6683;48.506;9.050;2023-09-19T06:27:58;0.77;;;0.70;;
13234;SDS011;6683;48.506;9.050;2023-09-19T06:31:05;0.80;;;0.50;;
13234;SDS011;6683;48.506;9.050;2023-09-19T06:34:13;0.70;;;0.60;;
13234;SDS011;6683;48.506;9.050;2023-09-19T06:37:16;0.53;;;0.40;;
13234;SDS011;6683;48.506;9.050;2023-09-19T06:40:18;1.20;;;1.00;;
13234;SDS011;6683;48.506;9.050;2023-09-19T06:43:21;1.07;;;0.80;;
13234;SDS011;6683;48.506;9.050;2023-09-19T06:46:23;0.90;;;0.80;;
13234;SDS011;6683;48.506;9.050;2023-09-19T06:49:25;0.80;;;0.60;;
13234;SDS011;6683;48.506;9.050;2023-09-19T06:52:30;0.50;;;0.50;;
13234;SDS011;6683;48.506;9.050;2023-09-19T06:55:33;1.40;;;0.60;;
13234;SDS011;6683;48.506;9.050;2023-09-19T06:58:36;1.13;;;0.57;;
13234;SDS011;6683;48.506;9.050;2023-09-19T07:01:38;2.20;;;0.60;;
13234;SDS011;6683;48.506;9.050;2023-09-19T07:04:41;0.90;;;0.70;;
13234;SDS011;6683;48.506;9.050;2023-09-19T07:07:44;0.70;;;0.70;;
13234;SDS011;6683;48.506;9.050;2023-09-19T07:10:46;1.30;;;0.63;;
13234;SDS011;6683;48.506;9.050;2023-09-19T07:13:49;0.60;;;0.57;;
13234;SDS011;6683;48.506;9.050;2023-09-19T07:16:51;1.03;;;0.60;;
13234;SDS011;6683;48.506;9.050;2023-09-19T07:19:53;0.87;;;0.60;;
13234;SDS011;6683;48.506;9.050;2023-09-19T07:22:56;1.23;;;0.67;;
13234;SDS011;6683;48.506;9.050;2023-09-19T07:25:59;0.80;;;0.57;;
13234;SDS011;6683;48.506;9.050;2023-09-19T07:29:05;0.80;;;0.60;;
13234;SDS011;6683;48.506;9.050;2023-09-19T07:32:08;0.73;;;0.70;;
13234;SDS011;6683;48.506;9.050;2023-09-19T07:35:11;2.10;;;0.70;;
13234;SDS011;6683;48.506;9.050;2023-09-19T07:38:16;1.20;;;0.80;;
13234;SDS011;6683;48.506;9.050;2023-09-19T07:41:18;2.40;;;0.77;;
13234;SDS011;6683;48.506;9.050;2023-09-19T07:44:21;0.80;;;0.70;;
13234;SDS011;6683;48.506;9.050;2023-09-19T07:47:24;0.73;;;0.60;;
13234;SDS011;6683;48.506;9.050;2023-09-19T07:50:27;0.77;;;0.60;;
13234;SDS011;6683;48.506;9.050;2023-09-19T07:53:30;0.83;;;0.60;;
13234;SDS011;6683;48.506;9.050;2023-09-19T07:56:34;0.80;;;0.53;;
13234;SDS011;6683;48.506;9.050;2023-09-19T07:59:37;1.73;;;0.60;;
13234;SDS011;6683;48.506;9.050;2023-09-19T08:02:41;0.90;;;0.70;;
13234;SDS011;6683;48.506;9.050;2023-09-19T08:05:44;1.47;;;0.63;;
13234;SDS011;6683;48.506;9.050;2023-09-19T08:08:51;2.37;;;0.67;;
13234;SDS011;6683;48.506;9.050;2023-09-19T08:11:55;0.70;;;0.60;;
13234;SDS011;6683;48.506;9.050;2023-09-19T08:14:57;0.70;;;0.70;;
13234;SDS011;6683;48.506;9.050;2023-09-19T08:17:59;1.23;;;0.90;;
13234;SDS011;6683;48.506;9.050;2023-09-19T08:21:01;0.70;;;0.50;;
13234;SDS011;6683;48.506;9.050;2023-09-19T08:24:05;0.80;;;0.60;;
13234;SDS011;6683;48.506;9.050;2023-09-19T08:27:09;0.60;;;0.60;;
13234;SDS011;6683;48.506;9.050;2023-09-19T08:30:12;1.47;;;0.83;;
13234;SDS011;6683;48.506;9.050;2023-09-19T08:33:16;1.07;;;0.87;;
13234;SDS011;6683;48.506;9.050;2023-09-19T08:36:18;0.97;;;0.80;;
13234;SDS011;6683;48.506;9.050;2023-09-19T08:39:21;0.87;;;0.80;;
13234;SDS011;6683;48.506;9.050;2023-09-19T08:42:24;1.10;;;0.80;;
13234;SDS011;6683;48.506;9.050;2023-09-19T08:45:26;0.77;;;0.70;;
13234;SDS011;6683;48.506;9.050;2023-09-19T08:48:28;0.97;;;0.83;;
13234;SDS011;6683;48.506;9.050;2023-09-19T08:51:33;0.80;;;0.77;;
13234;SDS011;6683;48.506;9.050;2023-09-19T08:54:47;0.77;;;0.73;;
13234;SDS011;6683;48.506;9.050;2023-09-19T08:57:53;0.77;;;0.70;;
13234;SDS011;6683;48.506;9.050;2023-09-19T09:01:01;1.07;;;0.87;;
13234;SDS011;6683;48.506;9.050;2023-09-19T09:04:08;0.70;;;0.70;;
13234;SDS011;6683;48.506;9.050;2023-09-19T09:07:13;0.87;;;0.80;;
13234;SDS011;6683;48.506;9.050;2023-09-19T09:10:18;1.10;;;1.00;;
13234;SDS011;6683;48.506;9.050;2023-09-19T09:13:22;0.70;;;0.70;;
13234;SDS011;6683;48.506;9.050;2023-09-19T09:16:26;1.20;;;0.70;;
13234;SDS011;6683;48.506;9.050;2023-09-19T09:19:31;1.83;;;0.90;;
13234;SDS011;6683;48.506;9.050;2023-09-19T09:22:33;0.93;;;0.80;;
13234;SDS011;6683;48.506;9.050;2023-09-19T09:25:50;0.93;;;0.70;;
13234;SDS011;6683;48.506;9.050;2023-09-19T09:28:58;0.98;;;0.80;;
13234;SDS011;6683;48.506;9.050;2023-09-19T09:32:00;1.60;;;1.07;;
13234;SDS011;6683;48.506;9.050;2023-09-19T09:35:19;1.00;;;0.80;;
13234;SDS011;6683;48.506;9.050;2023-09-19T09:38:22;0.70;;;0.70;;
13234;SDS011;6683;48.506;9.050;2023-09-19T09:41:35;0.75;;;0.75;;
13234;SDS011;6683;48.506;9.050;2023-09-19T09:44:40;0.80;;;0.80;;
13234;SDS011;6683;48.506;9.050;2023-09-19T09:47:44;1.45;;;0.70;;
13234;SDS011;6683;48.506;9.050;2023-09-19T09:50:55;1.00;;;0.90;;
13234;SDS011;6683;48.506;9.050;2023-09-19T09:54:09;1.05;;;0.80;;
13234;SDS011;6683;48.506;9.050;2023-09-19T09:57:15;1.10;;;1.00;;
13234;SDS011;6683;48.506;9.050;2023-09-19T10:00:20;1.70;;;0.95;;
13234;SDS011;6683;48.506;9.050;2023-09-19T10:03:30;0.75;;;0.73;;
13234;SDS011;6683;48.506;9.050;2023-09-19T10:06:40;1.08;;;0.98;;
13234;SDS011;6683;48.506;9.050;2023-09-19T10:09:47;0.60;;;0.60;;
13234;SDS011;6683;48.506;9.050;2023-09-19T10:12:52;1.42;;;0.88;;
13234;SDS011;6683;48.506;9.050;2023-09-19T10:16:04;0.70;;;0.70;;
13234;SDS011;6683;48.506;9.050;2023-09-19T10:19:11;0.77;;;0.75;;
13234;SDS011;6683;48.506;9.050;2023-09-19T10:22:22;1.00;;;0.80;;
13234;SDS011;6683;48.506;9.050;2023-09-19T10:25:27;0.95;;;0.90;;
13234;SDS011;6683;48.506;9.050;2023-09-19T10:28:32;1.05;;;0.82;;
13234;SDS011;6683;48.506;9.050;2023-09-19T10:31:35;1.27;;;0.88;;
13234;SDS011;6683;48.506;9.050;2023-09-19T10:34:40;0.70;;;0.70;;
13234;SDS011;6683;48.506;9.050;2023-09-19T10:37:43;0.75;;;0.75;;
13234;SDS011;6683;48.506;9.050;2023-09-19T10:40:50;1.23;;;0.82;;
13234;SDS011;6683;48.506;9.050;2023-09-19T10:43:55;2.00;;;0.77;;
13234;SDS011;6683;48.506;9.050;2023-09-19T10:46:59;1.83;;;1.00;;
13234;SDS011;6683;48.506;9.050;2023-09-19T10:50:06;0.70;;;0.70;;
13234;SDS011;6683;48.506;9.050;2023-09-19T10:53:12;1.75;;;0.80;;
13234;SDS011;6683;48.506;9.050;2023-09-19T10:56:17;1.80;;;0.90;;
13234;SDS011;6683;48.506;9.050;2023-09-19T10:59:29;0.82;;;0.80;;
13234;SDS011;6683;48.506;9.050;2023-09-19T11:02:34;1.10;;;1.00;;
13234;SDS011;6683;48.506;9.050;2023-09-19T11:05:37;1.10;;;1.00;;
13234;SDS011;6683;48.506;9.050;2023-09-19T11:19:23;0.80;;;0.70;;
13234;SDS011;6683;48.506;9.050;2023-09-19T11:26:39;0.82;;;0.80;;
13234;SDS011;6683;48.506;9.050;2023-09-19T11:29:47;0.85;;;0.85;;
13234;SDS011;6683;48.506;9.050;2023-09-19T11:33:18;0.85;;;0.80;;
13234;SDS011;6683;48.506;9.050;2023-09-19T11:36:28;0.80;;;0.80;;
13234;SDS011;6683;48.506;9.050;2023-09-19T11:39:38;0.80;;;0.70;;
13234;SDS011;6683;48.506;9.050;2023-09-19T11:42:41;1.00;;;0.80;;
13234;SDS011;6683;48.506;9.050;2023-09-19T11:46:04;0.93;;;0.90;;
13234;SDS011;6683;48.506;9.050;2023-09-19T11:49:09;0.70;;;0.70;;
13234;SDS011;6683;48.506;9.050;2023-09-19T11:52:20;0.75;;;0.75;;
13234;SDS011;6683;48.506;9.050;2023-09-19T11:55:24;0.80;;;0.80;;
13234;SDS011;6683;48.506;9.050;2023-09-19T11:58:31;0.77;;;0.70;;
13234;SDS011;6683;48.506;9.050;2023-09-19T12:01:33;1.40;;;0.80;;
13234;SDS011;6683;48.506;9.050;2023-09-19T12:04:37;1.20;;;0.77;;
13234;SDS011;6683;48.506;9.050;2023-09-19T12:07:42;1.00;;;0.70;;
13234;SDS011;6683;48.506;9.050;2023-09-19T12:10:47;0.85;;;0.82;;
13234;SDS011;6683;48.506;9.050;2023-09-19T12:13:51;0.85;;;0.85;;
13234;SDS011;6683;48.506;9.050;2023-09-19T12:16:53;1.17;;;0.70;;
13234;SDS011;6683;48.506;9.050;2023-09-19T12:19:57;1.45;;;0.90;;
13234;SDS011;6683;48.506;9.050;2023-09-19T12:23:00;0.77;;;0.70;;
13234;SDS011;6683;48.506;9.050;2023-09-19T12:26:03;1.45;;;0.93;;
13234;SDS011;6683;48.506;9.050;2023-09-19T12:29:13;0.95;;;0.90;;
13234;SDS011;6683;48.506;9.050;2023-09-19T12:32:17;0.82;;;0.82;;
13234;SDS011;6683;48.506;9.050;2023-09-19T12:35:32;1.85;;;0.90;;
13234;SDS011;6683;48.506;9.050;2023-09-19T12:38:35;1.45;;;1.00;;
13234;SDS011;6683;48.506;9.050;2023-09-19T12:41:37;1.60;;;0.85;;
13234;SDS011;6683;48.506;9.050;2023-09-19T12:44:40;0.80;;;0.80;;
13234;SDS011;6683;48.506;9.050;2023-09-19T12:51:24;1.30;;;0.80;;
13234;SDS011;6683;48.506;9.050;2023-09-19T12:54:37;0.80;;;0.80;;
13234;SDS011;6683;48.506;9.050;2023-09-19T12:57:40;1.35;;;1.00;;
13234;SDS011;6683;48.506;9.050;2023-09-19T13:00:43;1.80;;;0.90;;
13234;SDS011;6683;48.506;9.050;2023-09-19T13:11:00;0.50;;;0.50;;
13234;SDS011;6683;48.506;9.050;2023-09-19T13:14:14;0.77;;;0.77;;
13234;SDS011;6683;48.506;9.050;2023-09-19T13:17:20;1.02;;;0.90;;
13234;SDS011;6683;48.506;9.050;2023-09-19T13:20:23;1.30;;;0.80;;
13234;SDS011;6683;48.506;9.050;2023-09-19T13:23:30;0.82;;;0.80;;
13234;SDS011;6683;48.506;9.050;2023-09-19T13:26:32;0.80;;;0.80;;
13234;SDS011;6683;48.506;9.050;2023-09-19T13:29:34;0.95;;;0.88;;
13234;SDS011;6683;48.506;9.050;2023-09-19T13:32:36;1.10;;;0.90;;
13234;SDS011;6683;48.506;9.050;2023-09-19T13:35:40;1.00;;;0.90;;
13234;SDS011;6683;48.506;9.050;2023-09-19T13:38:43;0.88;;;0.70;;
13234;SDS011;6683;48.506;9.050;2023-09-19T13:41:48;1.45;;;0.90;;
13234;SDS011;6683;48.506;9.050;2023-09-19T13:44:50;1.35;;;0.93;;
13234;SDS011;6683;48.506;9.050;2023-09-19T13:47:53;1.10;;;1.00;;
13234;SDS011;6683;48.506;9.050;2023-09-19T13:50:55;0.85;;;0.85;;
13234;SDS011;6683;48.506;9.050;2023-09-19T13:53:59;1.05;;;0.80;;
13234;SDS011;6683;48.506;9.050;2023-09-19T13:57:01;1.08;;;0.90;;
13234;SDS011;6683;48.506;9.050;2023-09-19T14:00:03;0.80;;;0.70;;
13234;SDS011;6683;48.506;9.050;2023-09-19T14:03:10;0.80;;;0.80;;
13234;SDS011;6683;48.506;9.050;2023-09-19T14:06:12;1.50;;;1.00;;
13234;SDS011;6683;48.506;9.050;2023-09-19T14:09:15;1.00;;;0.80;;
13234;SDS011;6683;48.506;9.050;2023-09-19T14:12:19;0.90;;;0.80;;
13234;SDS011;6683;48.506;9.050;2023-09-19T14:15:21;0.80;;;0.80;;
13234;SDS011;6683;48.506;9.050;2023-09-19T14:18:29;0.98;;;0.80;;
13234;SDS011;6683;48.506;9.050;2023-09-19T14:21:31;1.05;;;0.88;;
13234;SDS011;6683;48.506;9.050;2023-09-19T14:24:35;1.17;;;0.98;;
13234;SDS011;6683;48.506;9.050;2023-09-19T14:27:37;1.63;;;0.80;;
13234;SDS011;6683;48.506;9.050;2023-09-19T14:30:39;0.70;;;0.70;;
13234;SDS011;6683;48.506;9.050;2023-09-19T14:33:41;0.73;;;0.73;;
13234;SDS011;6683;48.506;9.050;2023-09-19T14:36:44;0.80;;;0.80;;
13234;SDS011;6683;48.506;9.050;2023-09-19T14:39:47;0.80;;;0.80;;
13234;SDS011;6683;48.506;9.050;2023-09-19T14:42:49;1.00;;;0.90;;
13234;SDS011;6683;48.506;9.050;2023-09-19T14:45:52;0.65;;;0.65;;
13234;SDS011;6683;48.506;9.050;2023-09-19T14:48:54;1.33;;;0.88;;
13234;SDS011;6683;48.506;9.050;2023-09-19T14:51:59;1.10;;;0.93;;
13234;SDS011;6683;48.506;9.050;2023-09-19T14:55:06;0.80;;;0.80;;
13234;SDS011;6683;48.506;9.050;2023-09-19T14:58:15;1.00;;;0.80;;
13234;SDS011;6683;48.506;9.050;2023-09-19T15:01:17;1.17;;;0.90;;
13234;SDS011;6683;48.506;9.050;2023-09-19T15:04:19;1.23;;;1.00;;
13234;SDS011;6683;48.506;9.050;2023-09-19T15:07:21;0.68;;;0.68;;
13234;SDS011;6683;48.506;9.050;2023-09-19T15:10:25;1.05;;;0.95;;
13234;SDS011;6683;48.506;9.050;2023-09-19T15:13:27;1.23;;;0.90;;
13234;SDS011;6683;48.506;9.050;2023-09-19T15:16:29;1.05;;;0.90;;
13234;SDS011;6683;48.506;9.050;2023-09-19T15:19:32;0.88;;;0.82;;
13234;SDS011;6683;48.506;9.050;2023-09-19T15:22:35;1.00;;;0.90;;
13234;SDS011;6683;48.506;9.050;2023-09-19T15:25:41;0.90;;;0.80;;
13234;SDS011;6683;48.506;9.050;2023-09-19T15:28:50;1.20;;;1.10;;
13234;SDS011;6683;48.506;9.050;2023-09-19T15:31:54;1.77;;;1.63;;
13234;SDS011;6683;48.506;9.050;2023-09-19T15:35:02;1.25;;;1.00;;
13234;SDS011;6683;48.506;9.050;2023-09-19T15:38:05;1.15;;;1.00;;
13234;SDS011;6683;48.506;9.050;2023-09-19T15:41:12;1.23;;;1.13;;
13234;SDS011;6683;48.506;9.050;2023-09-19T15:44:15;0.82;;;0.80;;
13234;SDS011;6683;48.506;9.050;2023-09-19T15:47:20;1.48;;;0.90;;
13234;SDS011;6683;48.506;9.050;2023-09-19T15:50:22;0.93;;;0.88;;
13234;SDS011;6683;48.506;9.050;2023-09-19T15:53:25;1.20;;;1.10;;
13234;SDS011;6683;48.506;9.050;2023-09-19T15:56:29;1.55;;;0.90;;
13234;SDS011;6683;48.506;9.050;2023-09-19T15:59:31;1.70;;;1.27;;
13234;SDS011;6683;48.506;9.050;2023-09-19T16:02:33;1.10;;;0.90;;
13234;SDS011;6683;48.506;9.050;2023-09-19T16:05:35;2.67;;;1.10;;
13234;SDS011;6683;48.506;9.050;2023-09-19T16:08:39;1.20;;;1.05;;
13234;SDS011;6683;48.506;9.050;2023-09-19T16:11:43;0.90;;;0.82;;
13234;SDS011;6683;48.506;9.050;2023-09-19T16:14:45;0.80;;;0.75;;
13234;SDS011;6683;48.506;9.050;2023-09-19T16:17:47;1.75;;;1.05;;
13234;SDS011;6683;48.506;9.050;2023-09-19T16:20:50;1.13;;;1.00;;
13234;SDS011;6683;48.506;9.050;2023-09-19T16:23:52;1.33;;;1.10;;
13234;SDS011;6683;48.506;9.050;2023-09-19T16:26:56;1.30;;;0.80;;
13234;SDS011;6683;48.506;9.050;2023-09-19T16:29:59;1.02;;;1.02;;
13234;SDS011;6683;48.506;9.050;2023-09-19T16:33:02;1.10;;;1.00;;
13234;SDS011;6683;48.506;9.050;2023-09-19T16:36:06;1.00;;;0.90;;
13234;SDS011;6683;48.506;9.050;2023-09-19T16:39:10;1.00;;;0.90;;
13234;SDS011;6683;48.506;9.050;2023-09-19T16:42:13;1.67;;;1.00;;
13234;SDS011;6683;48.506;9.050;2023-09-19T16:45:16;1.13;;;1.00;;
13234;SDS011;6683;48.506;9.050;2023-09-19T16:48:18;1.88;;;1.20;;
13234;SDS011;6683;48.506;9.050;2023-09-19T16:51:20;1.20;;;0.80;;
13234;SDS011;6683;48.506;9.050;2023-09-19T16:54:22;1.23;;;1.00;;
13234;SDS011;6683;48.506;9.050;2023-09-19T16:57:25;1.73;;;1.08;;
13234;SDS011;6683;48.506;9.050;2023-09-19T17:00:27;1.77;;;1.13;;
13234;SDS011;6683;48.506;9.050;2023-09-19T17:03:30;1.00;;;0.90;;
13234;SDS011;6683;48.506;9.050;2023-09-19T17:06:35;1.13;;;1.02;;
13234;SDS011;6683;48.506;9.050;2023-09-19T17:09:38;1.20;;;1.10;;
13234;SDS011;6683;48.506;9.050;2023-09-19T17:12:42;1.15;;;0.95;;
13234;SDS011;6683;48.506;9.050;2023-09-19T17:15:44;1.50;;;0.88;;
13234;SDS011;6683;48.506;9.050;2023-09-19T17:18:49;3.55;;;1.17;;
13234;SDS011;6683;48.506;9.050;2023-09-19T17:21:53;0.90;;;0.90;;
13234;SDS011;6683;48.506;9.050;2023-09-19T17:24:55;1.40;;;1.00;;
13234;SDS011;6683;48.506;9.050;2023-09-19T17:27:58;1.55;;;1.05;;
13234;SDS011;6683;48.506;9.050;2023-09-19T17:31:00;1.47;;;1.30;;
13234;SDS011;6683;48.506;9.050;2023-09-19T17:34:03;1.17;;;1.07;;
13234;SDS011;6683;48.506;9.050;2023-09-19T17:37:05;1.07;;;0.97;;
13234;SDS011;6683;48.506;9.050;2023-09-19T17:40:09;1.90;;;1.30;;
13234;SDS011;6683;48.506;9.050;2023-09-19T17:43:13;1.40;;;1.00;;
13234;SDS011;6683;48.506;9.050;2023-09-19T17:46:16;1.70;;;1.30;;
13234;SDS011;6683;48.506;9.050;2023-09-19T17:49:18;1.97;;;1.10;;
13234;SDS011;6683;48.506;9.050;2023-09-19T17:52:21;1.10;;;1.00;;
13234;SDS011;6683;48.506;9.050;2023-09-19T17:55:23;1.73;;;1.30;;
13234;SDS011;6683;48.506;9.050;2023-09-19T17:58:27;2.00;;;1.10;;
13234;SDS011;6683;48.506;9.050;2023-09-19T18:01:29;2.13;;;1.43;;
13234;SDS011;6683;48.506;9.050;2023-09-19T18:04:32;1.73;;;1.40;;
13234;SDS011;6683;48.506;9.050;2023-09-19T18:07:34;1.50;;;1.30;;
13234;SDS011;6683;48.506;9.050;2023-09-19T18:10:36;1.90;;;1.17;;
13234;SDS011;6683;48.506;9.050;2023-09-19T18:13:40;1.57;;;1.10;;
13234;SDS011;6683;48.506;9.050;2023-09-19T18:16:43;1.67;;;1.13;;
13234;SDS011;6683;48.506;9.050;2023-09-19T18:19:46;1.10;;;1.00;;
13234;SDS011;6683;48.506;9.050;2023-09-19T18:22:48;2.00;;;1.10;;
13234;SDS011;6683;48.506;9.050;2023-09-19T18:25:55;1.47;;;1.13;;
13234;SDS011;6683;48.506;9.050;2023-09-19T18:28:58;1.50;;;1.20;;
13234;SDS011;6683;48.506;9.050;2023-09-19T18:32:00;1.27;;;1.10;;
13234;SDS011;6683;48.506;9.050;2023-09-19T18:35:03;1.73;;;1.10;;
13234;SDS011;6683;48.506;9.050;2023-09-19T18:38:07;1.80;;;1.20;;
13234;SDS011;6683;48.506;9.050;2023-09-19T18:41:09;1.47;;;1.30;;
13234;SDS011;6683;48.506;9.050;2023-09-19T18:44:15;1.30;;;1.20;;
13234;SDS011;6683;48.506;9.050;2023-09-19T18:47:17;1.80;;;1.27;;
13234;SDS011;6683;48.506;9.050;2023-09-19T18:50:22;1.60;;;1.20;;
13234;SDS011;6683;48.506;9.050;2023-09-19T18:53:26;1.33;;;1.23;;
13234;SDS011;6683;48.506;9.050;2023-09-19T18:56:28;1.30;;;1.10;;
13234;SDS011;6683;48.506;9.050;2023-09-19T18:59:31;1.40;;;1.10;;
13234;SDS011;6683;48.506;9.050;2023-09-19T19:02:33;1.03;;;0.93;;
13234;SDS011;6683;48.506;9.050;2023-09-19T19:05:38;1.20;;;1.00;;
13234;SDS011;6683;48.506;9.050;2023-09-19T19:08:40;1.83;;;1.37;;
13234;SDS011;6683;48.506;9.050;2023-09-19T19:11:42;1.83;;;1.17;;
13234;SDS011;6683;48.506;9.050;2023-09-19T19:14:46;1.40;;;0.93;;
13234;SDS011;6683;48.506;9.050;2023-09-19T19:17:48;1.37;;;1.03;;